Time;durP1;ratioP1;P1;durP2;ratioP2;P2;SDS_P1;SDS_P2;PMS_P1;PMS_P2;Temp;Humidity;BMP_temperature;BMP_pressure;BME280_temperature;BME280_humidity;BME280_pressure;Samples;Min_cycle;Max_cycle;Signal;HPM_P1;HPM_P2
2021/05/23 00:01:16;;;;;;;6.15;3.38;;;15.20;99.90;;;;;;5035437;28;20517;-90
2021/05/23 00:03:43;;;;;;;7.38;3.10;;;15.10;99.90;;;;;;5053443;28;20388;-90
2021/05/23 00:06:10;;;;;;;8.48;3.35;;;15.00;99.90;;;;;;5053310;28;20434;-91
2021/05/23 00:08:37;;;;;;;8.90;3.53;;;15.00;99.90;;;;;;5044838;28;20424;-91
2021/05/23 00:11:07;;;;;;;9.20;3.13;;;15.00;99.90;;;;;;5032792;28;20926;-88
2021/05/23 00:13:49;;;;;;;5.93;2.93;;;15.10;99.90;;;;;;5032256;28;20385;-92
2021/05/23 00:16:26;;;;;;;5.97;3.22;;;15.20;99.90;;;;;;5032879;28;20460;-92
2021/05/23 00:18:54;;;;;;;5.78;3.00;;;15.20;99.90;;;;;;5041398;28;20388;-91
2021/05/23 00:21:26;;;;;;;6.80;3.10;;;15.20;99.90;;;;;;5052703;28;20387;-91
2021/05/23 00:23:54;;;;;;;8.18;3.30;;;15.40;99.90;;;;;;5052767;28;20967;-90
2021/05/23 00:26:21;;;;;;;4.90;2.85;;;15.70;99.90;;;;;;5053378;28;20364;-90
2021/05/23 00:28:49;;;;;;;6.32;3.22;;;15.90;99.90;;;;;;5035641;28;20390;-91
2021/05/23 00:31:16;;;;;;;4.32;2.65;;;15.90;99.90;;;;;;5014259;28;20377;-90
2021/05/23 00:33:44;;;;;;;6.90;3.15;;;15.90;99.90;;;;;;5013833;28;20377;-90
2021/05/23 00:36:11;;;;;;;5.05;2.88;;;16.00;99.90;;;;;;5031835;28;20427;-88
2021/05/23 00:38:43;;;;;;;7.85;3.15;;;16.00;99.90;;;;;;5033548;28;20409;-89
2021/05/23 00:41:10;;;;;;;6.75;2.90;;;16.10;99.90;;;;;;5014253;28;20429;-91
2021/05/23 00:43:37;;;;;;;6.70;3.13;;;16.10;99.90;;;;;;5038794;28;20391;-91
2021/05/23 00:46:05;;;;;;;8.07;2.97;;;16.10;99.90;;;;;;5051764;28;20384;-91
2021/05/23 00:48:34;;;;;;;6.45;2.53;;;16.10;99.90;;;;;;5053469;28;20386;-92
2021/05/23 00:51:01;;;;;;;8.60;3.50;;;16.30;99.90;;;;;;5054186;28;20451;-88
2021/05/23 00:53:27;;;;;;;6.07;3.13;;;16.40;99.90;;;;;;5050070;28;20512;-90
2021/05/23 00:55:55;;;;;;;5.90;2.90;;;16.40;99.90;;;;;;5054853;28;20407;-89
2021/05/23 00:58:22;;;;;;;5.75;1.95;;;16.50;99.90;;;;;;5060798;28;20433;-92
2021/05/23 01:00:55;;;;;;;6.97;2.23;;;16.60;99.90;;;;;;5062345;28;20470;-90
2021/05/23 01:03:31;;;;;;;7.10;1.80;;;16.70;99.90;;;;;;5063361;28;20375;-88
2021/05/23 01:06:10;;;;;;;5.25;1.40;;;16.80;99.90;;;;;;5056616;28;20406;-90
2021/05/23 01:08:39;;;;;;;5.43;1.90;;;16.90;99.90;;;;;;5060416;28;20403;-90
2021/05/23 01:11:29;;;;;;;6.30;1.83;;;17.10;99.90;;;;;;5052785;28;20371;-91
2021/05/23 01:13:59;;;;;;;4.80;1.80;;;17.40;99.90;;;;;;5051000;28;20403;-91
2021/05/23 01:16:34;;;;;;;5.30;1.90;;;17.70;99.90;;;;;;5021839;28;20532;-89
2021/05/23 01:19:20;;;;;;;5.50;1.80;;;17.90;99.90;;;;;;5031015;28;20385;-90
2021/05/23 01:21:55;;;;;;;5.95;1.77;;;18.20;99.90;;;;;;5031557;28;20461;-89
2021/05/23 01:24:43;;;;;;;6.20;1.92;;;18.30;99.90;;;;;;5012902;28;20374;-89
2021/05/23 01:27:12;;;;;;;6.57;2.13;;;18.30;99.90;;;;;;5032879;28;20883;-90
2021/05/23 01:29:40;;;;;;;7.53;1.70;;;18.40;99.90;;;;;;5014332;28;20366;-89
2021/05/23 01:32:08;;;;;;;6.93;2.15;;;18.50;99.90;;;;;;5030665;28;20405;-89
2021/05/23 01:34:35;;;;;;;5.03;1.90;;;18.20;99.90;;;;;;5013668;28;20455;-92
2021/05/23 01:37:12;;;;;;;6.85;2.30;;;18.00;99.90;;;;;;5015557;28;20420;-91
2021/05/23 01:39:40;;;;;;;5.50;2.10;;;17.90;99.90;;;;;;5032268;28;20401;-91
2021/05/23 01:42:08;;;;;;;5.07;2.10;;;17.80;99.90;;;;;;5033045;28;20458;-94
2021/05/23 01:44:36;;;;;;;7.15;1.90;;;17.80;99.90;;;;;;5021650;28;20390;-94
2021/05/23 01:47:03;;;;;;;7.83;2.33;;;17.70;99.90;;;;;;5050079;28;20411;-93
2021/05/23 01:49:30;;;;;;;9.60;2.15;;;17.60;99.90;;;;;;5047310;28;20380;-93
2021/05/23 01:51:57;;;;;;;8.63;2.30;;;17.50;99.90;;;;;;5052734;28;20422;-91
2021/05/23 01:54:24;;;;;;;8.07;2.08;;;17.50;99.90;;;;;;5047111;28;20393;-89
2021/05/23 01:56:51;;;;;;;4.87;1.80;;;17.40;99.90;;;;;;5036934;28;20423;-89
2021/05/23 01:59:18;;;;;;;7.37;2.20;;;17.20;99.90;;;;;;5045048;28;20411;-88
2021/05/23 02:01:45;;;;;;;11.57;2.85;;;17.20;99.90;;;;;;5043307;28;20409;-90
2021/05/23 02:04:12;;;;;;;6.35;2.03;;;17.20;99.90;;;;;;5052392;28;20427;-86
2021/05/23 02:06:39;;;;;;;7.38;2.22;;;17.20;99.90;;;;;;5052926;28;20403;-86
2021/05/23 02:09:06;;;;;;;7.35;2.60;;;17.20;99.90;;;;;;5052902;28;20391;-89
2021/05/23 02:11:33;;;;;;;7.47;2.03;;;17.30;99.90;;;;;;5054075;28;20391;-90
2021/05/23 02:14:00;;;;;;;6.50;2.23;;;17.40;99.90;;;;;;5047068;28;20391;-87
2021/05/23 02:16:27;;;;;;;6.35;2.08;;;17.50;99.90;;;;;;5053902;28;20384;-87
2021/05/23 02:18:54;;;;;;;7.18;2.60;;;17.50;99.90;;;;;;5053638;28;21080;-85
2021/05/23 02:21:21;;;;;;;6.07;2.00;;;17.50;99.90;;;;;;5050671;28;20505;-86
2021/05/23 02:23:57;;;;;;;6.00;2.28;;;17.40;99.90;;;;;;5030048;28;20419;-87
2021/05/23 02:26:24;;;;;;;6.38;2.28;;;17.40;99.90;;;;;;5046811;28;20449;-86
2021/05/23 02:28:53;;;;;;;5.80;1.95;;;17.40;99.90;;;;;;5069091;28;20384;-91
2021/05/23 02:31:20;;;;;;;9.07;2.97;;;17.30;99.90;;;;;;5055316;28;20380;-87
2021/05/23 02:33:47;;;;;;;6.67;2.50;;;17.40;99.90;;;;;;5041704;28;20408;-88
2021/05/23 02:36:14;;;;;;;5.63;2.38;;;17.40;99.90;;;;;;5058695;28;20383;-88
2021/05/23 02:38:41;;;;;;;6.30;2.15;;;17.50;99.90;;;;;;5067142;28;20386;-88
2021/05/23 02:41:08;;;;;;;6.82;2.15;;;17.40;99.90;;;;;;5068684;28;20406;-88
2021/05/23 02:43:36;;;;;;;6.63;2.17;;;17.50;99.90;;;;;;5038767;28;20430;-89
2021/05/23 02:46:04;;;;;;;6.57;2.17;;;17.50;99.90;;;;;;5036331;28;20388;-90
2021/05/23 02:48:31;;;;;;;5.28;1.98;;;17.50;99.90;;;;;;5054299;28;20380;-90
2021/05/23 02:51:02;;;;;;;4.15;1.70;;;17.40;99.90;;;;;;5055700;28;20486;-87
2021/05/23 02:53:29;;;;;;;7.63;2.03;;;17.40;99.90;;;;;;5053690;28;20441;-88
2021/05/23 02:55:57;;;;;;;5.53;1.80;;;17.40;99.90;;;;;;5052081;28;20438;-90
2021/05/23 02:58:24;;;;;;;8.18;1.70;;;17.40;99.90;;;;;;5015706;28;20876;-87
2021/05/23 03:00:51;;;;;;;5.78;1.73;;;17.40;99.90;;;;;;5036020;28;20399;-88
2021/05/23 03:03:18;;;;;;;5.90;1.88;;;17.40;99.90;;;;;;5049592;28;20418;-88
2021/05/23 03:05:45;;;;;;;5.95;1.83;;;17.50;99.90;;;;;;5051573;28;20375;-88
2021/05/23 03:08:13;;;;;;;4.80;2.08;;;17.50;99.90;;;;;;5050908;28;20709;-86
2021/05/23 03:10:43;;;;;;;7.78;2.45;;;17.60;99.90;;;;;;5020549;28;20392;-85
2021/05/23 03:13:11;;;;;;;6.72;1.92;;;17.50;99.90;;;;;;5025600;28;20400;-94
2021/05/23 03:15:39;;;;;;;5.17;2.27;;;17.50;99.90;;;;;;5053545;28;20422;-91
2021/05/23 03:18:07;;;;;;;6.22;2.10;;;17.50;99.90;;;;;;5035609;28;20380;-91
2021/05/23 03:20:35;;;;;;;4.60;2.15;;;17.50;99.90;;;;;;5035078;28;20392;-88
2021/05/23 03:23:03;;;;;;;5.80;1.90;;;17.50;99.90;;;;;;5058187;28;20439;-90
2021/05/23 03:25:31;;;;;;;7.40;2.15;;;17.60;99.90;;;;;;5051834;28;20445;-90
2021/05/23 03:27:59;;;;;;;8.30;2.27;;;17.60;99.90;;;;;;5034148;28;20420;-91
2021/05/23 03:30:29;;;;;;;9.67;2.07;;;17.80;99.90;;;;;;5052647;28;20403;-89
2021/05/23 03:32:56;;;;;;;6.32;2.47;;;17.90;99.90;;;;;;5041139;28;20920;-88
2021/05/23 03:35:24;;;;;;;4.30;1.75;;;18.00;99.90;;;;;;5049554;28;20403;-90
2021/05/23 03:37:51;;;;;;;6.97;2.08;;;18.00;99.90;;;;;;5046184;28;20388;-86
2021/05/23 03:40:20;;;;;;;7.00;2.08;;;18.00;99.90;;;;;;5035488;28;20377;-89
2021/05/23 03:42:49;;;;;;;7.13;1.80;;;18.10;99.90;;;;;;5036260;28;20469;-90
2021/05/23 03:45:18;;;;;;;5.40;1.58;;;18.10;99.90;;;;;;5045980;28;20406;-88
2021/05/23 03:47:46;;;;;;;5.75;1.70;;;17.90;99.90;;;;;;5042009;28;20420;-88
2021/05/23 03:50:17;;;;;;;6.80;2.20;;;17.90;99.90;;;;;;5052239;28;20364;-89
2021/05/23 03:52:44;;;;;;;5.05;1.50;;;17.80;99.90;;;;;;5030964;28;20432;-89
2021/05/23 03:55:12;;;;;;;6.32;2.03;;;17.90;99.90;;;;;;5033308;28;20434;-90
2021/05/23 03:57:39;;;;;;;5.80;1.95;;;18.00;99.90;;;;;;5052468;28;20383;-90
2021/05/23 04:00:09;;;;;;;7.75;2.00;;;17.90;99.90;;;;;;5051159;28;20785;-90
2021/05/23 04:02:36;;;;;;;5.57;1.70;;;17.90;99.90;;;;;;5032444;28;20408;-90
2021/05/23 04:05:04;;;;;;;6.75;1.50;;;17.90;99.90;;;;;;5035393;28;20399;-86
2021/05/23 04:07:31;;;;;;;5.85;2.10;;;18.00;99.90;;;;;;5052537;28;20396;-91
2021/05/23 04:09:58;;;;;;;6.18;1.90;;;18.00;99.90;;;;;;5035867;28;20376;-90
2021/05/23 04:12:35;;;;;;;5.15;2.00;;;18.10;99.90;;;;;;5051099;28;20384;-92
2021/05/23 04:15:03;;;;;;;4.60;1.90;;;18.10;99.90;;;;;;5052733;28;20390;-90
2021/05/23 04:17:30;;;;;;;4.30;1.60;;;18.00;99.90;;;;;;5052722;28;20418;-90
2021/05/23 04:19:57;;;;;;;5.43;1.77;;;18.00;99.90;;;;;;5053140;28;20422;-91
2021/05/23 04:22:24;;;;;;;4.97;1.70;;;18.00;99.90;;;;;;5053324;28;20400;-89
2021/05/23 04:24:51;;;;;;;7.88;1.80;;;18.00;99.90;;;;;;5018441;28;20927;-91
2021/05/23 04:27:18;;;;;;;6.38;1.58;;;18.00;99.90;;;;;;5017061;28;20439;-90
2021/05/23 04:29:45;;;;;;;3.72;1.27;;;18.00;99.90;;;;;;5039598;28;20425;-90
2021/05/23 04:32:13;;;;;;;5.40;1.60;;;17.90;99.90;;;;;;5042092;28;20532;-89
2021/05/23 04:34:40;;;;;;;6.25;1.60;;;17.90;99.90;;;;;;5047170;28;20391;-87
2021/05/23 04:37:07;;;;;;;6.88;1.70;;;17.90;99.90;;;;;;5047399;28;20388;-88
2021/05/23 04:39:34;;;;;;;6.22;1.20;;;17.90;99.90;;;;;;5047899;28;21724;-84
2021/05/23 04:42:02;;;;;;;3.47;1.20;;;17.90;99.90;;;;;;5013467;28;20427;-83
2021/05/23 04:44:29;;;;;;;5.50;1.15;;;17.90;99.90;;;;;;5040443;28;20406;-87
2021/05/23 04:46:56;;;;;;;4.32;1.45;;;17.90;99.90;;;;;;5028548;28;20399;-85
2021/05/23 04:49:23;;;;;;;6.70;1.67;;;17.90;99.90;;;;;;5047506;28;20395;-87
2021/05/23 04:51:50;;;;;;;6.35;1.42;;;17.90;99.90;;;;;;5045954;28;20912;-86
2021/05/23 04:54:17;;;;;;;6.53;1.55;;;17.90;99.90;;;;;;5042273;28;20885;-87
2021/05/23 04:56:44;;;;;;;5.80;1.23;;;17.80;99.90;;;;;;5041627;28;20867;-89
2021/05/23 04:59:11;;;;;;;4.27;1.10;;;17.80;99.90;;;;;;5050796;28;20921;-87
2021/05/23 05:01:38;;;;;;;4.93;1.50;;;17.60;99.90;;;;;;5052557;28;20395;-88
2021/05/23 05:04:05;;;;;;;4.50;1.20;;;17.50;99.90;;;;;;5041405;28;21266;-88
2021/05/23 05:06:32;;;;;;;6.30;1.55;;;17.20;99.90;;;;;;5030982;28;20449;-90
2021/05/23 05:08:59;;;;;;;6.85;1.75;;;17.10;99.90;;;;;;5031448;28;20405;-90
2021/05/23 05:11:26;;;;;;;7.05;1.50;;;17.00;99.90;;;;;;5032992;28;20381;-87
2021/05/23 05:13:53;;;;;;;4.45;1.20;;;16.90;99.90;;;;;;5016180;28;20881;-91
2021/05/23 05:16:21;;;;;;;5.13;1.08;;;16.90;99.90;;;;;;5034105;28;20374;-92
2021/05/23 05:18:48;;;;;;;4.72;1.13;;;16.80;99.90;;;;;;5035056;28;20379;-94
2021/05/23 05:21:15;;;;;;;5.22;1.20;;;16.80;99.90;;;;;;5046989;28;20403;-93
2021/05/23 05:23:43;;;;;;;6.72;1.15;;;16.70;99.90;;;;;;5050441;28;20820;-91
2021/05/23 05:26:10;;;;;;;4.53;1.40;;;16.60;99.90;;;;;;5047639;28;20716;-92
2021/05/23 05:28:36;;;;;;;6.57;1.05;;;16.60;99.90;;;;;;5047986;28;20580;-91
2021/05/23 05:31:04;;;;;;;5.38;1.40;;;16.60;99.90;;;;;;5052317;28;20376;-92
2021/05/23 05:33:31;;;;;;;6.07;1.65;;;16.50;99.90;;;;;;5049703;28;20396;-92
2021/05/23 05:35:58;;;;;;;7.17;1.67;;;16.50;99.90;;;;;;5046026;28;20832;-92
2021/05/23 05:38:25;;;;;;;4.13;1.40;;;16.50;99.90;;;;;;5034327;28;20381;-90
2021/05/23 05:40:52;;;;;;;3.72;1.58;;;16.50;99.90;;;;;;5052128;28;21248;-88
2021/05/23 05:43:20;;;;;;;4.65;1.58;;;16.60;99.90;;;;;;5032338;28;20408;-90
2021/05/23 05:45:47;;;;;;;7.85;1.70;;;16.50;99.90;;;;;;5045756;28;20414;-88
2021/05/23 05:48:14;;;;;;;7.47;1.98;;;16.50;99.90;;;;;;5052484;28;20904;-86
2021/05/23 05:50:41;;;;;;;5.57;2.10;;;16.50;99.90;;;;;;5052635;28;20471;-87
2021/05/23 05:53:08;;;;;;;8.02;1.70;;;16.40;99.90;;;;;;5051715;28;20406;-89
2021/05/23 05:55:35;;;;;;;14.88;6.82;;;16.40;99.90;;;;;;5028856;28;20404;-87
2021/05/23 05:58:03;;;;;;;24.10;12.33;;;16.40;99.90;;;;;;5034754;28;20415;-87
2021/05/23 06:00:30;;;;;;;6.85;3.10;;;16.40;99.90;;;;;;5049853;28;20397;-88
2021/05/23 06:02:57;;;;;;;9.02;3.80;;;16.40;99.90;;;;;;5041626;28;20533;-88
2021/05/23 06:05:24;;;;;;;6.25;2.00;;;16.50;99.90;;;;;;5053335;28;20398;-88
2021/05/23 06:07:51;;;;;;;3.95;1.38;;;16.50;99.90;;;;;;5050829;28;20446;-84
2021/05/23 06:10:18;;;;;;;5.18;1.83;;;16.50;99.90;;;;;;5052352;28;20384;-86
2021/05/23 06:12:45;;;;;;;3.40;1.00;;;16.50;99.90;;;;;;5045865;28;20388;-88
2021/05/23 06:15:13;;;;;;;4.63;1.30;;;16.60;99.90;;;;;;5052709;28;20395;-89
2021/05/23 06:17:41;;;;;;;4.07;1.40;;;16.60;99.90;;;;;;5051856;28;20891;-88
2021/05/23 06:20:09;;;;;;;4.88;1.30;;;16.50;99.90;;;;;;5032413;28;20387;-89
2021/05/23 06:22:36;;;;;;;4.93;1.45;;;16.50;99.90;;;;;;5049901;28;20898;-85
2021/05/23 06:25:04;;;;;;;3.70;1.70;;;16.50;99.90;;;;;;5052660;28;20392;-86
2021/05/23 06:27:31;;;;;;;3.75;2.20;;;16.50;99.90;;;;;;5050381;28;20400;-86
2021/05/23 06:29:58;;;;;;;3.80;1.45;;;16.40;99.90;;;;;;5052901;28;20424;-88
2021/05/23 06:32:25;;;;;;;4.20;1.47;;;16.40;99.90;;;;;;5052400;28;20422;-87
2021/05/23 06:34:52;;;;;;;5.07;1.90;;;16.40;99.90;;;;;;5053472;28;20376;-88
2021/05/23 06:37:19;;;;;;;5.18;2.03;;;16.30;99.90;;;;;;5046304;28;20918;-89
2021/05/23 06:39:46;;;;;;;6.80;1.70;;;16.30;99.90;;;;;;5052260;28;20479;-89
2021/05/23 06:42:13;;;;;;;4.40;1.60;;;16.20;99.90;;;;;;5052992;28;20412;-89
2021/05/23 06:44:41;;;;;;;3.67;1.23;;;16.10;99.90;;;;;;5052527;28;20384;-88
2021/05/23 06:47:08;;;;;;;5.35;1.38;;;16.00;99.90;;;;;;5051748;28;20909;-87
2021/05/23 06:49:35;;;;;;;5.32;1.40;;;16.00;99.90;;;;;;5051449;28;20423;-88
2021/05/23 06:52:03;;;;;;;5.65;1.50;;;16.00;99.90;;;;;;5049338;28;20400;-87
2021/05/23 06:54:30;;;;;;;2.67;1.52;;;15.90;99.90;;;;;;5053717;28;20384;-87
2021/05/23 06:56:57;;;;;;;3.72;1.67;;;15.80;99.90;;;;;;5056980;28;20431;-87
2021/05/23 06:59:24;;;;;;;4.90;1.60;;;15.70;99.90;;;;;;5049371;28;20402;-85
2021/05/23 07:01:51;;;;;;;4.35;1.58;;;15.70;99.90;;;;;;5049808;28;20438;-85
2021/05/23 07:04:18;;;;;;;6.30;1.80;;;15.60;99.90;;;;;;5049997;28;20402;-86
2021/05/23 07:06:46;;;;;;;5.03;1.50;;;15.50;99.90;;;;;;5044407;28;20379;-86
2021/05/23 07:09:12;;;;;;;4.80;1.60;;;15.40;99.90;;;;;;5036237;28;20411;-84
2021/05/23 07:11:39;;;;;;;3.10;1.52;;;15.40;99.90;;;;;;5044741;28;20437;-85
2021/05/23 07:14:06;;;;;;;3.83;1.55;;;15.30;99.90;;;;;;5031529;28;20395;-84
2021/05/23 07:16:34;;;;;;;6.00;1.90;;;15.20;99.90;;;;;;5048746;28;20401;-85
2021/05/23 07:19:01;;;;;;;6.50;2.28;;;15.20;99.90;;;;;;5030846;28;20408;-85
2021/05/23 07:21:28;;;;;;;5.05;2.22;;;15.20;99.90;;;;;;5048106;28;20408;-84
2021/05/23 07:23:55;;;;;;;7.95;2.63;;;15.10;99.90;;;;;;5049419;28;20396;-85
2021/05/23 07:26:22;;;;;;;6.82;2.95;;;15.10;99.90;;;;;;5048731;28;20862;-83
2021/05/23 07:28:49;;;;;;;9.30;3.42;;;15.20;99.90;;;;;;5041023;28;20871;-83
2021/05/23 07:31:16;;;;;;;5.32;2.65;;;15.30;99.90;;;;;;5050371;28;20372;-85
2021/05/23 07:33:43;;;;;;;6.28;2.80;;;15.40;99.90;;;;;;5047252;28;21109;-84
2021/05/23 07:36:10;;;;;;;5.57;2.67;;;15.40;99.90;;;;;;5039185;28;20392;-86
2021/05/23 07:38:37;;;;;;;8.60;3.27;;;15.50;99.90;;;;;;5044841;28;20399;-84
2021/05/23 07:41:05;;;;;;;13.55;3.42;;;15.50;99.90;;;;;;5050264;28;20384;-85
2021/05/23 07:43:32;;;;;;;5.18;3.08;;;15.40;99.90;;;;;;5050386;28;20467;-84
2021/05/23 07:45:59;;;;;;;6.68;2.70;;;15.40;99.90;;;;;;5049692;28;20395;-84
2021/05/23 07:48:26;;;;;;;6.22;2.80;;;15.30;99.90;;;;;;5047929;28;20404;-85
2021/05/23 07:50:53;;;;;;;10.25;3.15;;;15.20;99.90;;;;;;5048365;28;20395;-85
2021/05/23 07:53:20;;;;;;;7.45;3.08;;;15.20;99.90;;;;;;5047151;28;20454;-84
2021/05/23 07:55:47;;;;;;;10.13;6.40;;;15.20;99.90;;;;;;5030180;28;20745;-85
2021/05/23 07:58:14;;;;;;;15.27;9.13;;;15.20;99.90;;;;;;5048059;28;20403;-85
2021/05/23 08:00:41;;;;;;;25.10;16.10;;;15.20;99.90;;;;;;5049443;28;20415;-86
2021/05/23 08:03:08;;;;;;;15.75;9.82;;;15.20;99.90;;;;;;5047800;28;20416;-86
2021/05/23 08:05:35;;;;;;;18.27;10.80;;;15.20;99.90;;;;;;5047372;28;20445;-85
2021/05/23 08:08:05;;;;;;;12.33;8.10;;;15.20;99.90;;;;;;5036552;28;20496;-87
2021/05/23 08:10:32;;;;;;;12.65;6.60;;;15.10;99.90;;;;;;5037671;28;20541;-86
2021/05/23 08:12:59;;;;;;;13.37;7.70;;;15.00;99.90;;;;;;5045806;28;20902;-84
2021/05/23 08:15:26;;;;;;;16.98;11.43;;;15.00;99.90;;;;;;5049913;28;20427;-85
2021/05/23 08:17:54;;;;;;;20.58;15.88;;;14.90;99.90;;;;;;5049624;28;20427;-86
2021/05/23 08:20:22;;;;;;;17.90;10.73;;;14.80;99.90;;;;;;5051004;28;20402;-86
2021/05/23 08:22:49;;;;;;;13.85;7.55;;;14.70;99.90;;;;;;5042169;28;20907;-86
2021/05/23 08:25:16;;;;;;;11.77;6.80;;;14.70;99.90;;;;;;5031518;28;20802;-86
2021/05/23 08:27:43;;;;;;;10.73;6.50;;;14.60;99.90;;;;;;5051057;28;20399;-88
2021/05/23 08:30:11;;;;;;;6.82;4.55;;;14.60;99.90;;;;;;5038551;28;20391;-88
2021/05/23 08:32:39;;;;;;;9.40;4.18;;;14.50;99.90;;;;;;5037808;28;20376;-88
2021/05/23 08:35:08;;;;;;;8.80;4.15;;;14.60;99.90;;;;;;5052003;28;20858;-89
2021/05/23 08:37:35;;;;;;;7.85;3.95;;;14.60;99.90;;;;;;5052232;28;20471;-89
2021/05/23 08:40:05;;;;;;;9.43;3.43;;;14.60;99.90;;;;;;5024134;28;20444;-88
2021/05/23 08:42:33;;;;;;;9.75;3.40;;;14.50;99.90;;;;;;5044798;28;20443;-88
2021/05/23 08:45:00;;;;;;;7.37;3.10;;;14.50;99.90;;;;;;5047623;28;20398;-94
2021/05/23 08:47:28;;;;;;;7.95;3.20;;;14.50;99.90;;;;;;5052728;28;20878;-89
2021/05/23 08:49:55;;;;;;;8.05;3.13;;;14.40;99.90;;;;;;5053292;28;20379;-84
2021/05/23 08:52:22;;;;;;;9.00;3.20;;;14.40;99.90;;;;;;5052455;28;20377;-86
2021/05/23 08:54:50;;;;;;;10.00;3.63;;;14.30;99.90;;;;;;5052132;28;20386;-86
2021/05/23 08:57:23;;;;;;;8.48;2.95;;;14.40;99.90;;;;;;5023477;28;20938;-87
2021/05/23 08:59:51;;;;;;;9.50;4.00;;;14.30;99.90;;;;;;5032315;28;20443;-86
2021/05/23 09:02:18;;;;;;;8.48;3.60;;;14.40;99.90;;;;;;5032377;28;20401;-88
2021/05/23 09:04:50;;;;;;;8.35;3.13;;;14.30;99.90;;;;;;5042481;28;20383;-86
2021/05/23 09:07:17;;;;;;;21.08;9.02;;;14.40;99.90;;;;;;5026051;28;20411;-86
2021/05/23 09:09:49;;;;;;;25.33;12.07;;;14.40;99.90;;;;;;5011132;28;20432;-87
2021/05/23 09:12:19;;;;;;;25.65;11.02;;;14.40;99.90;;;;;;5015751;28;20383;-87
2021/05/23 09:14:49;;;;;;;23.50;10.90;;;14.50;99.90;;;;;;5020958;28;20389;-88
2021/05/23 09:17:33;;;;;;;22.48;10.40;;;14.50;99.90;;;;;;5030208;28;20381;-86
2021/05/23 09:20:00;;;;;;;18.70;7.65;;;14.50;99.90;;;;;;5030244;28;20881;-87
2021/05/23 09:22:29;;;;;;;12.57;5.10;;;14.40;99.90;;;;;;5019100;28;20427;-87
2021/05/23 09:25:05;;;;;;;11.80;3.60;;;14.40;99.90;;;;;;5025404;28;20922;-86
2021/05/23 09:27:34;;;;;;;9.13;3.50;;;14.40;99.90;;;;;;5028801;28;20465;-88
2021/05/23 09:30:08;;;;;;;10.25;3.15;;;14.40;99.90;;;;;;5018176;28;20772;-90
2021/05/23 09:32:41;;;;;;;8.57;2.95;;;14.40;99.90;;;;;;5028129;28;20752;-84
2021/05/23 09:35:10;;;;;;;7.70;3.08;;;14.40;99.90;;;;;;5027415;28;20459;-87
2021/05/23 09:37:37;;;;;;;8.00;3.45;;;14.30;99.90;;;;;;5030292;28;20377;-86
2021/05/23 09:40:19;;;;;;;12.07;4.70;;;14.30;99.90;;;;;;5018639;28;20454;-87
2021/05/23 09:42:54;;;;;;;15.93;6.30;;;14.20;99.90;;;;;;5013798;28;20407;-86
2021/05/23 09:45:23;;;;;;;16.23;6.82;;;14.20;99.90;;;;;;5013861;28;20399;-87
2021/05/23 09:48:00;;;;;;;8.93;3.95;;;14.20;99.90;;;;;;5028339;28;20393;-87
2021/05/23 09:50:32;;;;;;;9.85;3.90;;;14.20;99.90;;;;;;5025852;28;20420;-87
2021/05/23 09:52:59;;;;;;;10.48;4.53;;;14.20;99.90;;;;;;5026280;28;20401;-86
2021/05/23 09:55:27;;;;;;;11.95;4.55;;;14.20;99.90;;;;;;5017670;28;20425;-85
2021/05/23 09:57:54;;;;;;;12.02;4.15;;;14.20;99.90;;;;;;5028973;28;20409;-87
2021/05/23 10:00:27;;;;;;;11.20;3.60;;;14.20;99.90;;;;;;5031453;28;20408;-86
2021/05/23 10:02:59;;;;;;;11.43;3.65;;;14.20;99.90;;;;;;5025742;28;20474;-86
2021/05/23 10:05:27;;;;;;;11.70;3.63;;;14.30;99.90;;;;;;5023143;28;21012;-86
2021/05/23 10:07:54;;;;;;;10.77;3.60;;;14.30;99.90;;;;;;5032022;28;20407;-84
2021/05/23 10:10:22;;;;;;;8.97;3.30;;;14.30;99.90;;;;;;5043612;28;20401;-86
2021/05/23 10:12:49;;;;;;;9.10;3.17;;;14.30;99.90;;;;;;5041268;28;20389;-86
2021/05/23 10:15:16;;;;;;;9.80;3.35;;;14.30;99.90;;;;;;5046866;28;20474;-86
2021/05/23 10:17:43;;;;;;;10.00;3.17;;;14.30;99.90;;;;;;5049650;28;20384;-86
2021/05/23 10:20:12;;;;;;;8.88;3.15;;;14.30;99.90;;;;;;5049664;28;20395;-86
2021/05/23 10:22:40;;;;;;;10.52;3.20;;;14.30;99.90;;;;;;5048181;28;20449;-86
2021/05/23 10:25:13;;;;;;;12.27;3.30;;;14.30;99.90;;;;;;5047640;28;20892;-85
2021/05/23 10:27:43;;;;;;;12.20;3.45;;;14.40;99.90;;;;;;5049102;28;20395;-86
2021/05/23 10:30:13;;;;;;;10.80;4.03;;;14.40;99.90;;;;;;5042128;28;20752;-86
2021/05/23 10:32:42;;;;;;;16.45;3.97;;;14.40;99.90;;;;;;5043276;28;20404;-87
2021/05/23 10:35:32;;;;;;;9.57;3.17;;;14.40;99.90;;;;;;5049990;28;20397;-85
2021/05/23 10:38:08;;;;;;;11.10;3.45;;;14.40;99.90;;;;;;5047836;28;20457;-87
2021/05/23 10:40:37;;;;;;;6.80;3.00;;;14.30;99.90;;;;;;5050900;28;20875;-86
2021/05/23 10:43:04;;;;;;;10.10;3.25;;;14.20;99.90;;;;;;5028952;28;20411;-87
2021/05/23 10:45:34;;;;;;;8.98;3.40;;;14.20;99.90;;;;;;5044248;28;20831;-84
2021/05/23 10:48:18;;;;;;;7.80;2.95;;;14.20;99.90;;;;;;5035899;28;20422;-86
2021/05/23 10:50:47;;;;;;;8.60;2.80;;;14.20;99.90;;;;;;5032828;28;20671;-86
2021/05/23 10:53:15;;;;;;;8.95;2.85;;;14.20;99.90;;;;;;5043091;28;20535;-86
2021/05/23 10:55:51;;;;;;;12.30;3.10;;;14.10;99.90;;;;;;5031315;28;20812;-87
2021/05/23 10:58:23;;;;;;;12.30;3.10;;;14.00;99.90;;;;;;5050499;28;20384;-86
2021/05/23 11:00:54;;;;;;;10.90;3.00;;;13.90;99.90;;;;;;5041804;28;20394;-89
2021/05/23 11:03:24;;;;;;;8.75;3.10;;;13.80;99.90;;;;;;5051022;28;20435;-87
2021/05/23 11:06:22;;;;;;;8.07;2.90;;;13.70;99.90;;;;;;5019786;28;20421;-90
2021/05/23 11:08:49;;;;;;;8.23;3.20;;;13.70;99.90;;;;;;5028271;28;20478;-89
2021/05/23 11:11:22;;;;;;;7.18;3.08;;;13.70;99.90;;;;;;5029210;28;20422;-86
2021/05/23 11:13:49;;;;;;;10.43;3.15;;;13.60;99.90;;;;;;5049985;28;20396;-87
2021/05/23 11:16:17;;;;;;;10.50;3.33;;;13.60;99.90;;;;;;5030804;28;20543;-88
2021/05/23 11:18:45;;;;;;;9.57;3.42;;;13.50;99.90;;;;;;5046271;28;20404;-87
2021/05/23 11:21:14;;;;;;;8.80;3.22;;;13.40;99.90;;;;;;5036414;28;20396;-87
2021/05/23 11:23:51;;;;;;;8.60;3.38;;;13.40;99.90;;;;;;5044976;28;20401;-87
2021/05/23 11:26:20;;;;;;;8.65;3.05;;;13.30;99.90;;;;;;5051437;28;20388;-87
2021/05/23 11:28:59;;;;;;;12.48;3.92;;;13.30;99.90;;;;;;5060961;28;20411;-88
2021/05/23 11:31:30;;;;;;;12.10;3.88;;;13.30;99.90;;;;;;5048851;28;20475;-86
2021/05/23 11:33:58;;;;;;;11.00;3.97;;;13.20;99.90;;;;;;5049852;28;20392;-87
2021/05/23 11:36:28;;;;;;;8.45;4.00;;;13.20;99.90;;;;;;5031432;28;20811;-88
2021/05/23 11:39:05;;;;;;;8.20;3.67;;;13.10;99.90;;;;;;5044721;28;20432;-87
2021/05/23 11:41:34;;;;;;;13.27;4.75;;;13.00;99.90;;;;;;5042050;28;20660;-87
2021/05/23 11:44:02;;;;;;;10.87;4.43;;;12.90;99.90;;;;;;5049841;28;20419;-87
2021/05/23 11:46:29;;;;;;;10.60;4.80;;;12.90;99.90;;;;;;5048491;28;20891;-86
2021/05/23 11:48:57;;;;;;;11.55;5.18;;;12.90;99.90;;;;;;5049718;28;20390;-89
2021/05/23 11:51:27;;;;;;;8.25;5.38;;;12.80;99.90;;;;;;5045539;28;20391;-88
2021/05/23 11:54:04;;;;;;;11.40;6.07;;;12.80;99.90;;;;;;5048712;28;20392;-88
2021/05/23 11:56:35;;;;;;;13.57;6.50;;;12.90;99.90;;;;;;5038116;28;20398;-89
2021/05/23 11:59:07;;;;;;;13.45;6.00;;;12.90;99.90;;;;;;5052319;28;20382;-86
2021/05/23 12:01:36;;;;;;;11.57;6.13;;;12.80;99.90;;;;;;5052380;28;20414;-87
2021/05/23 12:04:14;;;;;;;12.23;5.30;;;12.90;99.90;;;;;;5031235;28;20412;-87
2021/05/23 12:06:52;;;;;;;11.18;4.80;;;12.80;99.90;;;;;;5032036;28;20423;-88
2021/05/23 12:09:31;;;;;;;9.98;4.75;;;12.70;99.90;;;;;;5033520;28;20400;-88
2021/05/23 12:12:04;;;;;;;12.07;4.60;;;12.70;99.90;;;;;;5031575;28;20438;-87
2021/05/23 12:14:38;;;;;;;11.63;4.35;;;12.70;99.90;;;;;;5050489;28;20383;-88
2021/05/23 12:17:16;;;;;;;11.80;4.40;;;12.70;99.90;;;;;;5023108;28;20399;-87
2021/05/23 12:19:55;;;;;;;10.88;4.15;;;12.70;99.90;;;;;;5040146;28;20403;-87
2021/05/23 12:22:35;;;;;;;9.05;3.88;;;12.70;99.90;;;;;;5050155;28;20894;-87
2021/05/23 12:25:05;;;;;;;9.05;3.42;;;12.80;99.90;;;;;;5040719;28;20503;-86
2021/05/23 12:27:45;;;;;;;7.35;3.83;;;12.70;99.90;;;;;;5042054;28;20389;-88
2021/05/23 12:30:24;;;;;;;8.30;4.00;;;12.70;99.90;;;;;;5046375;28;20897;-87
2021/05/23 12:32:54;;;;;;;6.17;3.60;;;12.70;99.90;;;;;;5052012;28;20406;-87
2021/05/23 12:35:29;;;;;;;12.07;3.97;;;12.70;99.90;;;;;;5051025;28;20400;-88
2021/05/23 12:37:59;;;;;;;8.60;3.75;;;12.70;99.90;;;;;;5050452;28;20401;-87
2021/05/23 12:40:41;;;;;;;10.40;4.15;;;12.70;99.90;;;;;;5045983;28;20391;-88
2021/05/23 12:43:25;;;;;;;9.95;4.00;;;12.70;99.90;;;;;;5050447;28;20407;-88
2021/05/23 12:46:24;;;;;;;9.50;3.88;;;12.60;99.90;;;;;;5024164;28;20417;-88
2021/05/23 12:48:51;;;;;;;11.70;3.93;;;12.60;99.90;;;;;;4976223;28;20423;-88
2021/05/23 12:51:25;;;;;;;7.65;3.40;;;12.60;99.90;;;;;;5043183;28;20396;-87
2021/05/23 12:53:53;;;;;;;7.03;3.72;;;12.70;99.90;;;;;;5049388;28;20387;-87